sensor_id;sensor_type;location;lat;lon;timestamp;P1;durP1;ratioP1;P2;durP2;ratioP2
3443;SDS011;1736;52.068;6.968;2023-10-13T00:01:18;41.07;;;24.57;;
3443;SDS011;1736;52.068;6.968;2023-10-13T00:03:44;47.97;;;25.30;;
3443;SDS011;1736;52.068;6.968;2023-10-13T00:06:11;45.60;;;23.67;;
3443;SDS011;1736;52.068;6.968;2023-10-13T00:08:38;42.83;;;23.70;;
3443;SDS011;1736;52.068;6.968;2023-10-13T00:11:05;41.87;;;24.73;;
3443;SDS011;1736;52.068;6.968;2023-10-13T00:13:34;48.60;;;25.47;;
3443;SDS011;1736;52.068;6.968;2023-10-13T00:16:07;48.83;;;24.47;;
3443;SDS011;1736;52.068;6.968;2023-10-13T00:18:41;42.73;;;23.73;;
3443;SDS011;1736;52.068;6.968;2023-10-13T00:21:09;46.40;;;23.87;;
3443;SDS011;1736;52.068;6.968;2023-10-13T00:23:40;41.03;;;24.00;;
3443;SDS011;1736;52.068;6.968;2023-10-13T00:26:14;39.17;;;23.07;;
3443;SDS011;1736;52.068;6.968;2023-10-13T00:28:43;41.30;;;25.37;;
3443;SDS011;1736;52.068;6.968;2023-10-13T00:31:11;54.33;;;25.07;;
3443;SDS011;1736;52.068;6.968;2023-10-13T00:33:39;42.43;;;23.70;;
3443;SDS011;1736;52.068;6.968;2023-10-13T00:36:07;46.13;;;24.60;;
3443;SDS011;1736;52.068;6.968;2023-10-13T00:38:34;44.90;;;24.50;;
3443;SDS011;1736;52.068;6.968;2023-10-13T00:41:03;42.03;;;24.50;;
3443;SDS011;1736;52.068;6.968;2023-10-13T00:43:43;42.97;;;23.30;;
3443;SDS011;1736;52.068;6.968;2023-10-13T00:46:10;39.73;;;25.23;;
3443;SDS011;1736;52.068;6.968;2023-10-13T00:48:39;38.57;;;22.80;;
3443;SDS011;1736;52.068;6.968;2023-10-13T00:51:16;44.07;;;22.90;;
3443;SDS011;1736;52.068;6.968;2023-10-13T00:53:44;45.33;;;23.67;;
3443;SDS011;1736;52.068;6.968;2023-10-13T00:56:13;36.40;;;22.53;;
3443;SDS011;1736;52.068;6.968;2023-10-13T00:58:52;39.00;;;22.00;;
3443;SDS011;1736;52.068;6.968;2023-10-13T01:01:18;41.00;;;22.43;;
3443;SDS011;1736;52.068;6.968;2023-10-13T01:03:46;44.10;;;22.27;;
3443;SDS011;1736;52.068;6.968;2023-10-13T01:06:15;59.47;;;23.30;;
3443;SDS011;1736;52.068;6.968;2023-10-13T01:08:41;35.10;;;20.60;;
3443;SDS011;1736;52.068;6.968;2023-10-13T01:11:09;36.90;;;21.50;;
3443;SDS011;1736;52.068;6.968;2023-10-13T01:13:36;40.10;;;21.80;;
3443;SDS011;1736;52.068;6.968;2023-10-13T01:16:03;34.93;;;20.03;;
3443;SDS011;1736;52.068;6.968;2023-10-13T01:18:29;32.50;;;19.60;;
3443;SDS011;1736;52.068;6.968;2023-10-13T01:20:55;35.63;;;19.20;;
3443;SDS011;1736;52.068;6.968;2023-10-13T01:23:25;35.00;;;19.47;;
3443;SDS011;1736;52.068;6.968;2023-10-13T01:25:54;33.03;;;18.80;;
3443;SDS011;1736;52.068;6.968;2023-10-13T01:28:19;29.37;;;18.23;;
3443;SDS011;1736;52.068;6.968;2023-10-13T01:30:47;32.57;;;17.10;;
3443;SDS011;1736;52.068;6.968;2023-10-13T01:33:15;27.97;;;17.37;;
3443;SDS011;1736;52.068;6.968;2023-10-13T01:35:41;29.33;;;17.63;;
3443;SDS011;1736;52.068;6.968;2023-10-13T01:38:08;32.73;;;18.57;;
3443;SDS011;1736;52.068;6.968;2023-10-13T01:40:35;39.30;;;19.83;;
3443;SDS011;1736;52.068;6.968;2023-10-13T01:43:01;32.47;;;17.13;;
3443;SDS011;1736;52.068;6.968;2023-10-13T01:45:29;34.00;;;18.77;;
3443;SDS011;1736;52.068;6.968;2023-10-13T01:47:55;31.40;;;18.00;;
3443;SDS011;1736;52.068;6.968;2023-10-13T01:50:22;28.90;;;17.17;;
3443;SDS011;1736;52.068;6.968;2023-10-13T01:52:53;35.10;;;17.00;;
3443;SDS011;1736;52.068;6.968;2023-10-13T01:55:31;29.30;;;16.97;;
3443;SDS011;1736;52.068;6.968;2023-10-13T01:58:02;35.30;;;18.20;;
3443;SDS011;1736;52.068;6.968;2023-10-13T02:00:34;33.97;;;17.53;;
3443;SDS011;1736;52.068;6.968;2023-10-13T02:03:06;35.67;;;18.27;;
3443;SDS011;1736;52.068;6.968;2023-10-13T02:05:40;35.37;;;18.50;;
3443;SDS011;1736;52.068;6.968;2023-10-13T02:08:08;27.77;;;17.90;;
3443;SDS011;1736;52.068;6.968;2023-10-13T02:10:42;29.80;;;17.50;;
3443;SDS011;1736;52.068;6.968;2023-10-13T02:13:11;35.30;;;17.93;;
3443;SDS011;1736;52.068;6.968;2023-10-13T02:15:40;30.23;;;18.13;;
3443;SDS011;1736;52.068;6.968;2023-10-13T02:18:07;30.57;;;16.93;;
3443;SDS011;1736;52.068;6.968;2023-10-13T02:20:34;29.83;;;17.30;;
3443;SDS011;1736;52.068;6.968;2023-10-13T02:23:06;27.27;;;16.77;;
3443;SDS011;1736;52.068;6.968;2023-10-13T02:25:35;26.57;;;16.27;;
3443;SDS011;1736;52.068;6.968;2023-10-13T02:28:01;30.00;;;15.97;;
3443;SDS011;1736;52.068;6.968;2023-10-13T02:30:29;25.47;;;15.63;;
3443;SDS011;1736;52.068;6.968;2023-10-13T02:32:54;23.77;;;14.67;;
3443;SDS011;1736;52.068;6.968;2023-10-13T02:35:21;25.77;;;15.57;;
3443;SDS011;1736;52.068;6.968;2023-10-13T02:37:54;27.60;;;15.70;;
3443;SDS011;1736;52.068;6.968;2023-10-13T02:40:23;25.17;;;16.37;;
3443;SDS011;1736;52.068;6.968;2023-10-13T02:42:48;31.00;;;15.90;;
3443;SDS011;1736;52.068;6.968;2023-10-13T02:45:15;25.53;;;15.27;;
3443;SDS011;1736;52.068;6.968;2023-10-13T02:47:43;30.00;;;16.50;;
3443;SDS011;1736;52.068;6.968;2023-10-13T02:50:10;27.93;;;16.43;;
3443;SDS011;1736;52.068;6.968;2023-10-13T02:52:37;26.73;;;15.93;;
3443;SDS011;1736;52.068;6.968;2023-10-13T02:55:06;25.37;;;14.27;;
3443;SDS011;1736;52.068;6.968;2023-10-13T02:57:35;23.90;;;14.80;;
3443;SDS011;1736;52.068;6.968;2023-10-13T03:00:01;23.30;;;15.03;;
3443;SDS011;1736;52.068;6.968;2023-10-13T03:02:37;25.10;;;14.40;;
3443;SDS011;1736;52.068;6.968;2023-10-13T03:05:10;25.73;;;15.47;;
3443;SDS011;1736;52.068;6.968;2023-10-13T03:07:38;25.67;;;15.37;;
3443;SDS011;1736;52.068;6.968;2023-10-13T03:10:08;27.83;;;15.20;;
3443;SDS011;1736;52.068;6.968;2023-10-13T03:12:36;23.03;;;13.70;;
3443;SDS011;1736;52.068;6.968;2023-10-13T03:15:02;26.93;;;16.10;;
3443;SDS011;1736;52.068;6.968;2023-10-13T03:17:38;23.93;;;14.50;;
3443;SDS011;1736;52.068;6.968;2023-10-13T03:20:08;23.57;;;13.80;;
3443;SDS011;1736;52.068;6.968;2023-10-13T03:22:38;30.50;;;17.43;;
3443;SDS011;1736;52.068;6.968;2023-10-13T03:25:04;25.93;;;15.07;;
3443;SDS011;1736;52.068;6.968;2023-10-13T03:27:30;27.87;;;14.60;;
3443;SDS011;1736;52.068;6.968;2023-10-13T03:30:05;23.50;;;14.50;;
3443;SDS011;1736;52.068;6.968;2023-10-13T03:32:39;32.10;;;14.10;;
3443;SDS011;1736;52.068;6.968;2023-10-13T03:35:09;25.47;;;13.13;;
3443;SDS011;1736;52.068;6.968;2023-10-13T03:37:43;21.60;;;14.27;;
3443;SDS011;1736;52.068;6.968;2023-10-13T03:40:10;21.47;;;13.67;;
3443;SDS011;1736;52.068;6.968;2023-10-13T03:42:59;26.03;;;13.03;;
3443;SDS011;1736;52.068;6.968;2023-10-13T03:45:29;22.83;;;12.80;;
3443;SDS011;1736;52.068;6.968;2023-10-13T03:48:01;21.77;;;13.30;;
3443;SDS011;1736;52.068;6.968;2023-10-13T03:50:33;20.90;;;13.80;;
3443;SDS011;1736;52.068;6.968;2023-10-13T03:53:02;22.40;;;13.73;;
3443;SDS011;1736;52.068;6.968;2023-10-13T03:55:31;25.90;;;14.57;;
3443;SDS011;1736;52.068;6.968;2023-10-13T03:58:00;21.63;;;13.60;;
3443;SDS011;1736;52.068;6.968;2023-10-13T04:00:28;27.00;;;15.47;;
3443;SDS011;1736;52.068;6.968;2023-10-13T04:02:56;26.87;;;15.87;;
3443;SDS011;1736;52.068;6.968;2023-10-13T04:05:33;23.27;;;14.17;;
3443;SDS011;1736;52.068;6.968;2023-10-13T04:08:07;25.23;;;14.40;;
3443;SDS011;1736;52.068;6.968;2023-10-13T04:11:02;28.47;;;16.67;;
3443;SDS011;1736;52.068;6.968;2023-10-13T04:13:46;29.77;;;15.57;;
3443;SDS011;1736;52.068;6.968;2023-10-13T04:16:30;30.93;;;16.70;;
3443;SDS011;1736;52.068;6.968;2023-10-13T04:19:15;28.50;;;16.37;;
3443;SDS011;1736;52.068;6.968;2023-10-13T04:21:47;33.93;;;17.50;;
3443;SDS011;1736;52.068;6.968;2023-10-13T04:24:25;36.37;;;15.40;;
3443;SDS011;1736;52.068;6.968;2023-10-13T04:27:24;39.00;;;16.27;;
3443;SDS011;1736;52.068;6.968;2023-10-13T04:30:06;29.77;;;17.17;;
3443;SDS011;1736;52.068;6.968;2023-10-13T04:32:49;29.53;;;16.53;;
3443;SDS011;1736;52.068;6.968;2023-10-13T04:35:31;36.27;;;17.07;;
3443;SDS011;1736;52.068;6.968;2023-10-13T04:38:01;31.60;;;15.77;;
3443;SDS011;1736;52.068;6.968;2023-10-13T04:40:40;34.73;;;16.53;;
3443;SDS011;1736;52.068;6.968;2023-10-13T04:43:21;36.77;;;16.20;;
3443;SDS011;1736;52.068;6.968;2023-10-13T04:45:58;21.57;;;15.10;;
3443;SDS011;1736;52.068;6.968;2023-10-13T04:48:23;31.20;;;15.43;;
3443;SDS011;1736;52.068;6.968;2023-10-13T04:51:03;31.97;;;16.40;;
3443;SDS011;1736;52.068;6.968;2023-10-13T04:53:59;24.50;;;14.40;;
3443;SDS011;1736;52.068;6.968;2023-10-13T04:56:30;26.20;;;15.17;;
3443;SDS011;1736;52.068;6.968;2023-10-13T04:59:14;25.20;;;13.00;;
3443;SDS011;1736;52.068;6.968;2023-10-13T05:02:00;23.83;;;14.07;;
3443;SDS011;1736;52.068;6.968;2023-10-13T05:04:44;22.70;;;12.63;;
3443;SDS011;1736;52.068;6.968;2023-10-13T05:07:27;26.87;;;13.97;;
3443;SDS011;1736;52.068;6.968;2023-10-13T05:10:10;21.83;;;13.20;;
3443;SDS011;1736;52.068;6.968;2023-10-13T05:12:55;24.97;;;12.77;;
3443;SDS011;1736;52.068;6.968;2023-10-13T05:15:42;19.13;;;11.57;;
3443;SDS011;1736;52.068;6.968;2023-10-13T05:18:26;27.23;;;13.20;;
3443;SDS011;1736;52.068;6.968;2023-10-13T05:21:11;25.17;;;12.47;;
3443;SDS011;1736;52.068;6.968;2023-10-13T05:23:54;20.73;;;11.20;;
3443;SDS011;1736;52.068;6.968;2023-10-13T05:26:38;22.13;;;12.20;;
3443;SDS011;1736;52.068;6.968;2023-10-13T05:29:23;18.27;;;11.90;;
3443;SDS011;1736;52.068;6.968;2023-10-13T05:32:07;21.27;;;11.63;;
3443;SDS011;1736;52.068;6.968;2023-10-13T05:34:51;25.27;;;12.10;;
3443;SDS011;1736;52.068;6.968;2023-10-13T05:37:34;20.30;;;10.90;;
3443;SDS011;1736;52.068;6.968;2023-10-13T05:40:18;20.07;;;11.90;;
3443;SDS011;1736;52.068;6.968;2023-10-13T05:43:02;24.90;;;14.03;;
3443;SDS011;1736;52.068;6.968;2023-10-13T05:45:47;20.63;;;12.97;;
3443;SDS011;1736;52.068;6.968;2023-10-13T05:48:34;29.37;;;15.10;;
3443;SDS011;1736;52.068;6.968;2023-10-13T05:51:17;24.80;;;15.57;;
3443;SDS011;1736;52.068;6.968;2023-10-13T05:53:57;31.63;;;17.73;;
3443;SDS011;1736;52.068;6.968;2023-10-13T05:56:41;27.60;;;16.60;;
3443;SDS011;1736;52.068;6.968;2023-10-13T05:59:25;31.17;;;18.63;;
3443;SDS011;1736;52.068;6.968;2023-10-13T06:02:12;27.70;;;18.60;;
3443;SDS011;1736;52.068;6.968;2023-10-13T06:05:47;38.33;;;20.20;;
3443;SDS011;1736;52.068;6.968;2023-10-13T06:08:27;47.47;;;22.70;;
3443;SDS011;1736;52.068;6.968;2023-10-13T06:11:11;34.37;;;18.80;;
3443;SDS011;1736;52.068;6.968;2023-10-13T06:13:55;29.10;;;16.87;;
3443;SDS011;1736;52.068;6.968;2023-10-13T06:16:50;32.27;;;18.87;;
3443;SDS011;1736;52.068;6.968;2023-10-13T06:19:34;32.27;;;18.30;;
3443;SDS011;1736;52.068;6.968;2023-10-13T06:22:19;27.87;;;17.90;;
3443;SDS011;1736;52.068;6.968;2023-10-13T06:25:08;27.17;;;16.30;;
3443;SDS011;1736;52.068;6.968;2023-10-13T06:27:52;24.00;;;15.40;;
3443;SDS011;1736;52.068;6.968;2023-10-13T06:30:53;23.20;;;14.10;;
3443;SDS011;1736;52.068;6.968;2023-10-13T06:33:21;20.77;;;14.23;;
3443;SDS011;1736;52.068;6.968;2023-10-13T06:35:50;22.83;;;13.90;;
3443;SDS011;1736;52.068;6.968;2023-10-13T06:38:22;19.93;;;12.13;;
3443;SDS011;1736;52.068;6.968;2023-10-13T06:40:49;17.53;;;11.63;;
3443;SDS011;1736;52.068;6.968;2023-10-13T06:43:17;16.60;;;11.90;;
3443;SDS011;1736;52.068;6.968;2023-10-13T06:45:47;20.53;;;12.37;;
3443;SDS011;1736;52.068;6.968;2023-10-13T06:48:22;15.93;;;9.10;;
3443;SDS011;1736;52.068;6.968;2023-10-13T06:50:48;15.73;;;10.30;;
3443;SDS011;1736;52.068;6.968;2023-10-13T06:53:17;18.27;;;10.70;;
3443;SDS011;1736;52.068;6.968;2023-10-13T06:55:44;14.07;;;11.03;;
3443;SDS011;1736;52.068;6.968;2023-10-13T06:58:14;14.63;;;10.80;;
3443;SDS011;1736;52.068;6.968;2023-10-13T07:00:42;16.27;;;10.10;;
3443;SDS011;1736;52.068;6.968;2023-10-13T07:03:17;12.27;;;9.43;;
3443;SDS011;1736;52.068;6.968;2023-10-13T07:05:44;13.43;;;9.73;;
3443;SDS011;1736;52.068;6.968;2023-10-13T07:08:12;12.50;;;8.10;;
3443;SDS011;1736;52.068;6.968;2023-10-13T07:10:48;12.83;;;8.30;;
3443;SDS011;1736;52.068;6.968;2023-10-13T07:13:17;16.10;;;8.40;;
3443;SDS011;1736;52.068;6.968;2023-10-13T07:15:44;17.77;;;8.33;;
3443;SDS011;1736;52.068;6.968;2023-10-13T07:18:11;13.37;;;8.30;;
3443;SDS011;1736;52.068;6.968;2023-10-13T07:20:39;11.67;;;7.87;;
3443;SDS011;1736;52.068;6.968;2023-10-13T07:23:09;14.60;;;8.33;;
3443;SDS011;1736;52.068;6.968;2023-10-13T07:25:37;17.13;;;8.10;;
3443;SDS011;1736;52.068;6.968;2023-10-13T07:28:07;12.77;;;7.83;;
3443;SDS011;1736;52.068;6.968;2023-10-13T07:30:34;9.37;;;6.87;;
3443;SDS011;1736;52.068;6.968;2023-10-13T07:33:07;12.70;;;8.30;;
3443;SDS011;1736;52.068;6.968;2023-10-13T07:35:38;15.43;;;7.40;;
3443;SDS011;1736;52.068;6.968;2023-10-13T07:38:04;10.83;;;7.23;;
3443;SDS011;1736;52.068;6.968;2023-10-13T07:40:33;11.83;;;6.83;;
3443;SDS011;1736;52.068;6.968;2023-10-13T07:43:16;13.37;;;7.67;;
3443;SDS011;1736;52.068;6.968;2023-10-13T07:45:46;11.63;;;7.07;;
3443;SDS011;1736;52.068;6.968;2023-10-13T07:48:16;13.23;;;7.47;;
3443;SDS011;1736;52.068;6.968;2023-10-13T07:50:45;15.17;;;7.90;;
3443;SDS011;1736;52.068;6.968;2023-10-13T07:53:11;13.10;;;7.50;;
3443;SDS011;1736;52.068;6.968;2023-10-13T07:55:47;12.07;;;7.23;;
3443;SDS011;1736;52.068;6.968;2023-10-13T07:58:14;15.80;;;8.50;;
3443;SDS011;1736;52.068;6.968;2023-10-13T08:00:42;11.17;;;7.87;;
3443;SDS011;1736;52.068;6.968;2023-10-13T08:03:19;14.40;;;8.27;;
3443;SDS011;1736;52.068;6.968;2023-10-13T08:06:00;13.93;;;9.00;;
3443;SDS011;1736;52.068;6.968;2023-10-13T08:08:31;19.00;;;8.50;;
3443;SDS011;1736;52.068;6.968;2023-10-13T08:11:03;12.30;;;8.23;;
3443;SDS011;1736;52.068;6.968;2023-10-13T08:13:35;16.33;;;9.10;;
3443;SDS011;1736;52.068;6.968;2023-10-13T08:16:04;21.30;;;9.47;;
3443;SDS011;1736;52.068;6.968;2023-10-13T08:21:01;13.27;;;8.17;;
3443;SDS011;1736;52.068;6.968;2023-10-13T08:23:29;11.30;;;7.57;;
3443;SDS011;1736;52.068;6.968;2023-10-13T08:26:24;12.80;;;7.90;;
3443;SDS011;1736;52.068;6.968;2023-10-13T08:29:04;11.57;;;7.30;;
3443;SDS011;1736;52.068;6.968;2023-10-13T08:31:52;16.53;;;7.43;;
3443;SDS011;1736;52.068;6.968;2023-10-13T08:34:39;15.53;;;8.30;;
3443;SDS011;1736;52.068;6.968;2023-10-13T08:37:24;14.17;;;8.00;;
3443;SDS011;1736;52.068;6.968;2023-10-13T08:39:58;15.97;;;7.70;;
3443;SDS011;1736;52.068;6.968;2023-10-13T08:42:44;20.90;;;8.47;;
3443;SDS011;1736;52.068;6.968;2023-10-13T08:45:34;18.37;;;7.80;;
3443;SDS011;1736;52.068;6.968;2023-10-13T08:48:17;18.50;;;7.67;;
3443;SDS011;1736;52.068;6.968;2023-10-13T08:50:44;13.70;;;6.83;;
3443;SDS011;1736;52.068;6.968;2023-10-13T08:53:17;20.83;;;7.73;;
3443;SDS011;1736;52.068;6.968;2023-10-13T08:55:52;17.87;;;6.70;;
3443;SDS011;1736;52.068;6.968;2023-10-13T08:58:30;13.60;;;6.70;;
3443;SDS011;1736;52.068;6.968;2023-10-13T09:01:11;12.17;;;6.20;;
3443;SDS011;1736;52.068;6.968;2023-10-13T09:03:39;21.33;;;7.43;;
3443;SDS011;1736;52.068;6.968;2023-10-13T09:06:06;13.97;;;6.93;;
3443;SDS011;1736;52.068;6.968;2023-10-13T09:08:33;18.30;;;7.10;;
3443;SDS011;1736;52.068;6.968;2023-10-13T09:11:09;12.63;;;6.20;;
3443;SDS011;1736;52.068;6.968;2023-10-13T09:13:37;12.57;;;6.20;;
3443;SDS011;1736;52.068;6.968;2023-10-13T09:16:09;11.27;;;6.93;;
3443;SDS011;1736;52.068;6.968;2023-10-13T09:18:42;15.87;;;6.20;;
3443;SDS011;1736;52.068;6.968;2023-10-13T09:21:11;19.57;;;6.10;;
3443;SDS011;1736;52.068;6.968;2023-10-13T09:24:08;15.43;;;5.97;;
3443;SDS011;1736;52.068;6.968;2023-10-13T09:26:58;15.37;;;6.33;;
3443;SDS011;1736;52.068;6.968;2023-10-13T09:29:26;13.70;;;6.10;;
3443;SDS011;1736;52.068;6.968;2023-10-13T09:32:00;15.93;;;6.40;;
3443;SDS011;1736;52.068;6.968;2023-10-13T09:34:30;15.50;;;6.03;;
3443;SDS011;1736;52.068;6.968;2023-10-13T09:36:57;16.07;;;5.93;;
3443;SDS011;1736;52.068;6.968;2023-10-13T09:39:24;10.47;;;5.70;;
3443;SDS011;1736;52.068;6.968;2023-10-13T09:41:55;16.23;;;6.13;;
3443;SDS011;1736;52.068;6.968;2023-10-13T09:44:24;15.63;;;6.27;;
3443;SDS011;1736;52.068;6.968;2023-10-13T09:46:55;12.80;;;5.40;;
3443;SDS011;1736;52.068;6.968;2023-10-13T09:49:29;12.80;;;6.03;;
3443;SDS011;1736;52.068;6.968;2023-10-13T09:52:09;15.30;;;5.97;;
3443;SDS011;1736;52.068;6.968;2023-10-13T09:54:41;12.67;;;5.73;;
3443;SDS011;1736;52.068;6.968;2023-10-13T09:57:10;10.07;;;6.47;;
3443;SDS011;1736;52.068;6.968;2023-10-13T09:59:42;14.50;;;6.33;;
3443;SDS011;1736;52.068;6.968;2023-10-13T10:02:14;12.17;;;6.50;;
3443;SDS011;1736;52.068;6.968;2023-10-13T10:04:51;24.87;;;6.77;;
3443;SDS011;1736;52.068;6.968;2023-10-13T10:07:23;11.13;;;5.13;;
3443;SDS011;1736;52.068;6.968;2023-10-13T10:09:55;17.93;;;6.43;;
3443;SDS011;1736;52.068;6.968;2023-10-13T10:12:25;12.03;;;6.57;;
3443;SDS011;1736;52.068;6.968;2023-10-13T10:15:06;8.03;;;5.70;;
3443;SDS011;1736;52.068;6.968;2023-10-13T10:17:38;20.10;;;6.50;;
3443;SDS011;1736;52.068;6.968;2023-10-13T10:20:06;12.93;;;6.10;;
3443;SDS011;1736;52.068;6.968;2023-10-13T10:22:40;9.67;;;5.60;;
3443;SDS011;1736;52.068;6.968;2023-10-13T10:25:11;15.73;;;5.77;;
3443;SDS011;1736;52.068;6.968;2023-10-13T10:27:54;11.00;;;5.87;;
3443;SDS011;1736;52.068;6.968;2023-10-13T10:30:23;16.67;;;6.07;;
3443;SDS011;1736;52.068;6.968;2023-10-13T10:32:53;13.00;;;6.30;;
3443;SDS011;1736;52.068;6.968;2023-10-13T10:35:25;14.20;;;6.20;;
3443;SDS011;1736;52.068;6.968;2023-10-13T10:37:55;14.53;;;6.33;;
3443;SDS011;1736;52.068;6.968;2023-10-13T10:40:37;11.90;;;6.80;;
3443;SDS011;1736;52.068;6.968;2023-10-13T10:43:16;15.10;;;5.93;;
3443;SDS011;1736;52.068;6.968;2023-10-13T10:45:45;12.47;;;5.93;;
3443;SDS011;1736;52.068;6.968;2023-10-13T10:48:13;16.57;;;6.50;;
3443;SDS011;1736;52.068;6.968;2023-10-13T10:50:45;16.20;;;6.73;;
3443;SDS011;1736;52.068;6.968;2023-10-13T10:53:18;14.47;;;6.07;;
3443;SDS011;1736;52.068;6.968;2023-10-13T10:55:45;13.33;;;6.03;;
3443;SDS011;1736;52.068;6.968;2023-10-13T10:58:12;13.97;;;6.00;;
3443;SDS011;1736;52.068;6.968;2023-10-13T11:01:04;11.87;;;5.50;;
3443;SDS011;1736;52.068;6.968;2023-10-13T11:03:35;17.80;;;6.03;;
3443;SDS011;1736;52.068;6.968;2023-10-13T11:06:04;18.30;;;6.17;;
3443;SDS011;1736;52.068;6.968;2023-10-13T11:08:39;12.03;;;5.80;;
3443;SDS011;1736;52.068;6.968;2023-10-13T11:11:08;15.67;;;5.73;;
3443;SDS011;1736;52.068;6.968;2023-10-13T11:13:43;14.80;;;5.60;;
3443;SDS011;1736;52.068;6.968;2023-10-13T11:16:19;16.37;;;5.87;;
3443;SDS011;1736;52.068;6.968;2023-10-13T11:18:58;14.90;;;6.07;;
3443;SDS011;1736;52.068;6.968;2023-10-13T11:21:29;13.00;;;6.20;;
3443;SDS011;1736;52.068;6.968;2023-10-13T11:23:56;18.57;;;6.07;;
3443;SDS011;1736;52.068;6.968;2023-10-13T11:26:32;19.77;;;6.60;;
3443;SDS011;1736;52.068;6.968;2023-10-13T11:28:59;19.87;;;6.13;;
3443;SDS011;1736;52.068;6.968;2023-10-13T11:31:29;15.30;;;6.00;;
3443;SDS011;1736;52.068;6.968;2023-10-13T11:33:56;15.10;;;6.20;;
3443;SDS011;1736;52.068;6.968;2023-10-13T11:36:26;13.63;;;6.00;;
3443;SDS011;1736;52.068;6.968;2023-10-13T11:38:59;16.90;;;6.17;;
3443;SDS011;1736;52.068;6.968;2023-10-13T11:41:26;10.47;;;5.97;;
3443;SDS011;1736;52.068;6.968;2023-10-13T11:43:59;12.67;;;6.03;;
3443;SDS011;1736;52.068;6.968;2023-10-13T11:46:38;20.20;;;5.83;;
3443;SDS011;1736;52.068;6.968;2023-10-13T11:49:32;18.63;;;6.00;;
3443;SDS011;1736;52.068;6.968;2023-10-13T11:52:02;15.40;;;6.37;;
3443;SDS011;1736;52.068;6.968;2023-10-13T11:54:42;26.37;;;6.47;;
3443;SDS011;1736;52.068;6.968;2023-10-13T11:57:08;16.03;;;7.10;;
3443;SDS011;1736;52.068;6.968;2023-10-13T11:59:35;10.50;;;5.97;;
3443;SDS011;1736;52.068;6.968;2023-10-13T12:02:09;11.77;;;6.00;;
3443;SDS011;1736;52.068;6.968;2023-10-13T12:04:53;14.83;;;6.37;;
3443;SDS011;1736;52.068;6.968;2023-10-13T12:07:22;24.97;;;6.13;;
3443;SDS011;1736;52.068;6.968;2023-10-13T12:09:53;20.47;;;6.07;;
3443;SDS011;1736;52.068;6.968;2023-10-13T12:12:31;12.80;;;6.10;;
3443;SDS011;1736;52.068;6.968;2023-10-13T12:15:05;19.77;;;7.27;;
3443;SDS011;1736;52.068;6.968;2023-10-13T12:17:38;15.63;;;6.60;;
3443;SDS011;1736;52.068;6.968;2023-10-13T12:20:10;12.23;;;6.10;;
3443;SDS011;1736;52.068;6.968;2023-10-13T12:22:50;16.70;;;7.37;;
3443;SDS011;1736;52.068;6.968;2023-10-13T12:25:21;17.77;;;6.17;;
3443;SDS011;1736;52.068;6.968;2023-10-13T12:28:09;11.47;;;6.33;;
3443;SDS011;1736;52.068;6.968;2023-10-13T12:30:43;16.20;;;6.77;;
3443;SDS011;1736;52.068;6.968;2023-10-13T12:33:14;19.50;;;6.93;;
3443;SDS011;1736;52.068;6.968;2023-10-13T12:35:49;14.87;;;6.53;;
3443;SDS011;1736;52.068;6.968;2023-10-13T12:38:28;13.47;;;6.30;;
3443;SDS011;1736;52.068;6.968;2023-10-13T12:41:17;11.40;;;6.83;;
3443;SDS011;1736;52.068;6.968;2023-10-13T12:44:01;16.17;;;6.40;;
3443;SDS011;1736;52.068;6.968;2023-10-13T12:46:41;14.30;;;6.17;;
3443;SDS011;1736;52.068;6.968;2023-10-13T12:49:25;15.03;;;6.77;;
3443;SDS011;1736;52.068;6.968;2023-10-13T12:52:14;18.50;;;6.93;;
3443;SDS011;1736;52.068;6.968;2023-10-13T12:54:44;11.83;;;6.23;;
3443;SDS011;1736;52.068;6.968;2023-10-13T12:57:13;16.80;;;6.10;;
3443;SDS011;1736;52.068;6.968;2023-10-13T12:59:40;13.77;;;7.10;;
3443;SDS011;1736;52.068;6.968;2023-10-13T13:02:07;19.33;;;6.57;;
3443;SDS011;1736;52.068;6.968;2023-10-13T13:04:39;11.03;;;6.30;;
3443;SDS011;1736;52.068;6.968;2023-10-13T13:07:09;15.00;;;5.90;;
3443;SDS011;1736;52.068;6.968;2023-10-13T13:09:38;15.73;;;8.00;;
3443;SDS011;1736;52.068;6.968;2023-10-13T13:12:04;11.73;;;6.70;;
3443;SDS011;1736;52.068;6.968;2023-10-13T13:14:33;19.17;;;7.03;;
3443;SDS011;1736;52.068;6.968;2023-10-13T13:16:59;13.90;;;6.90;;
3443;SDS011;1736;52.068;6.968;2023-10-13T13:19:29;15.60;;;6.67;;
3443;SDS011;1736;52.068;6.968;2023-10-13T13:21:58;16.37;;;6.53;;
3443;SDS011;1736;52.068;6.968;2023-10-13T13:24:25;15.10;;;7.17;;
3443;SDS011;1736;52.068;6.968;2023-10-13T13:26:55;18.30;;;7.90;;
3443;SDS011;1736;52.068;6.968;2023-10-13T13:29:21;11.97;;;6.63;;
3443;SDS011;1736;52.068;6.968;2023-10-13T13:31:49;12.80;;;6.13;;
3443;SDS011;1736;52.068;6.968;2023-10-13T13:34:15;21.97;;;6.00;;
3443;SDS011;1736;52.068;6.968;2023-10-13T13:36:44;17.17;;;7.20;;
3443;SDS011;1736;52.068;6.968;2023-10-13T13:39:14;14.33;;;7.10;;
3443;SDS011;1736;52.068;6.968;2023-10-13T13:41:53;12.87;;;6.17;;
3443;SDS011;1736;52.068;6.968;2023-10-13T13:44:21;15.67;;;6.60;;
3443;SDS011;1736;52.068;6.968;2023-10-13T13:46:56;20.77;;;7.23;;
3443;SDS011;1736;52.068;6.968;2023-10-13T13:49:22;12.23;;;6.00;;
3443;SDS011;1736;52.068;6.968;2023-10-13T13:51:54;19.33;;;6.60;;
3443;SDS011;1736;52.068;6.968;2023-10-13T13:54:21;21.53;;;7.13;;
3443;SDS011;1736;52.068;6.968;2023-10-13T13:56:47;20.03;;;6.73;;
3443;SDS011;1736;52.068;6.968;2023-10-13T13:59:14;16.97;;;6.70;;
3443;SDS011;1736;52.068;6.968;2023-10-13T14:01:44;18.30;;;6.30;;
3443;SDS011;1736;52.068;6.968;2023-10-13T14:04:12;14.97;;;6.13;;
3443;SDS011;1736;52.068;6.968;2023-10-13T14:06:42;19.50;;;6.20;;
3443;SDS011;1736;52.068;6.968;2023-10-13T14:09:09;17.57;;;7.03;;
3443;SDS011;1736;52.068;6.968;2023-10-13T14:11:41;19.10;;;6.70;;
3443;SDS011;1736;52.068;6.968;2023-10-13T14:14:36;21.73;;;5.80;;
3443;SDS011;1736;52.068;6.968;2023-10-13T14:17:03;17.40;;;7.03;;
3443;SDS011;1736;52.068;6.968;2023-10-13T14:19:34;29.20;;;6.17;;
3443;SDS011;1736;52.068;6.968;2023-10-13T14:22:05;20.93;;;6.33;;
3443;SDS011;1736;52.068;6.968;2023-10-13T14:24:33;15.53;;;5.93;;
3443;SDS011;1736;52.068;6.968;2023-10-13T14:27:00;21.50;;;7.40;;
3443;SDS011;1736;52.068;6.968;2023-10-13T14:29:33;17.27;;;5.93;;
3443;SDS011;1736;52.068;6.968;2023-10-13T14:32:05;16.03;;;6.60;;
3443;SDS011;1736;52.068;6.968;2023-10-13T14:34:31;28.57;;;6.73;;
3443;SDS011;1736;52.068;6.968;2023-10-13T14:37:01;19.90;;;6.33;;
3443;SDS011;1736;52.068;6.968;2023-10-13T14:39:29;17.33;;;6.50;;
3443;SDS011;1736;52.068;6.968;2023-10-13T14:41:59;15.20;;;5.57;;
3443;SDS011;1736;52.068;6.968;2023-10-13T14:44:25;22.13;;;6.00;;
3443;SDS011;1736;52.068;6.968;2023-10-13T14:46:52;13.73;;;6.53;;
3443;SDS011;1736;52.068;6.968;2023-10-13T14:49:19;12.03;;;5.83;;
3443;SDS011;1736;52.068;6.968;2023-10-13T14:51:46;18.43;;;6.70;;
3443;SDS011;1736;52.068;6.968;2023-10-13T14:54:16;16.33;;;6.20;;
3443;SDS011;1736;52.068;6.968;2023-10-13T14:56:42;20.25;;;7.00;;
3443;SDS011;1736;52.068;6.968;2023-10-13T14:59:08;16.15;;;6.00;;
3443;SDS011;1736;52.068;6.968;2023-10-13T15:01:41;21.10;;;6.60;;
3443;SDS011;1736;52.068;6.968;2023-10-13T15:04:08;19.33;;;6.33;;
3443;SDS011;1736;52.068;6.968;2023-10-13T15:06:34;17.23;;;6.65;;
3443;SDS011;1736;52.068;6.968;2023-10-13T15:09:01;14.73;;;6.47;;
3443;SDS011;1736;52.068;6.968;2023-10-13T15:11:30;18.92;;;6.80;;
3443;SDS011;1736;52.068;6.968;2023-10-13T15:14:02;21.10;;;6.10;;
3443;SDS011;1736;52.068;6.968;2023-10-13T15:16:28;17.88;;;5.97;;
3443;SDS011;1736;52.068;6.968;2023-10-13T15:18:55;17.92;;;6.60;;
3443;SDS011;1736;52.068;6.968;2023-10-13T15:21:22;19.00;;;6.68;;
3443;SDS011;1736;52.068;6.968;2023-10-13T15:23:51;15.98;;;5.82;;
3443;SDS011;1736;52.068;6.968;2023-10-13T15:26:18;18.38;;;6.88;;
3443;SDS011;1736;52.068;6.968;2023-10-13T15:28:47;19.88;;;6.20;;
3443;SDS011;1736;52.068;6.968;2023-10-13T15:31:14;16.00;;;5.90;;
3443;SDS011;1736;52.068;6.968;2023-10-13T15:34:02;19.17;;;5.90;;